Time;durP1;ratioP1;P1;durP2;ratioP2;P2;SDS_P1;SDS_P2;PMS_P1;PMS_P2;Temp;Humidity;BMP_temperature;BMP_pressure;BME280_temperature;BME280_humidity;BME280_pressure;Samples;Min_cycle;Max_cycle;Signal;HPM_P1;HPM_P2
2021/12/23 00:00:55;;;;;;;29.13;13.23;;;;;;;-9.75;100.00;91515.06;5072847;28;20029;-61
2021/12/23 00:03:20;;;;;;;39.83;11.23;;;;;;;-9.67;100.00;91513.19;5073037;28;20467;-61
2021/12/23 00:05:46;;;;;;;22.85;8.02;;;;;;;-9.67;100.00;91505.47;5072844;28;20097;-61
2021/12/23 00:08:11;;;;;;;9.27;5.20;;;;;;;-9.66;100.00;91511.44;5072924;28;20056;-61
2021/12/23 00:10:37;;;;;;;16.63;7.72;;;;;;;-9.68;100.00;91503.09;5072808;28;20094;-61
2021/12/23 00:13:03;;;;;;;19.65;6.47;;;;;;;-9.69;100.00;91509.22;5072770;28;20039;-61
2021/12/23 00:15:36;;;;;;;12.82;6.65;;;;;;;-9.70;100.00;91510.97;5072771;28;20028;-61
2021/12/23 00:18:17;;;;;;;;;;;;;;;-9.77;100.00;91511.88;5073167;28;20024;-61
2021/12/23 00:25:47;;;;;;;20.60;8.98;;;;;;;-9.97;100.00;91506.38;5072868;28;20034;-61
2021/12/23 00:28:13;;;;;;;24.13;10.88;;;;;;;-9.98;100.00;91504.78;5072526;28;20024;-61
2021/12/23 00:30:38;;;;;;;26.10;11.38;;;;;;;-9.96;100.00;91506.19;5072392;28;20563;-61
2021/12/23 00:33:04;;;;;;;35.35;14.25;;;;;;;-10.09;100.00;91492.34;5072375;28;20103;-61
2021/12/23 00:35:30;;;;;;;33.40;14.88;;;;;;;-10.00;100.00;91511.88;5072532;28;20028;-61
2021/12/23 00:38:00;;;;;;;26.65;12.15;;;;;;;-10.18;100.00;91509.59;5072650;28;20043;-61
2021/12/23 00:40:26;;;;;;;33.60;12.70;;;;;;;-10.13;100.00;91524.50;5072608;28;20063;-61
2021/12/23 00:42:52;;;;;;;18.13;10.23;;;;;;;-10.28;100.00;91503.91;5072558;28;20107;-61
2021/12/23 00:45:18;;;;;;;24.75;10.57;;;;;;;-10.21;100.00;91514.31;5072186;28;20520;-61
2021/12/23 00:47:43;;;;;;;23.55;10.38;;;;;;;-10.21;100.00;91517.69;5072136;28;20036;-61
2021/12/23 00:50:09;;;;;;;25.90;11.90;;;;;;;-10.25;100.00;91524.16;5072048;28;20474;-61
2021/12/23 00:52:37;;;;;;;36.92;15.02;;;;;;;-10.30;100.00;91529.00;5071905;28;20086;-61
2021/12/23 00:55:04;;;;;;;39.17;14.68;;;;;;;-10.39;100.00;91517.97;5071930;28;20028;-61
2021/12/23 00:57:31;;;;;;;26.52;12.98;;;;;;;-10.46;100.00;91516.22;5071960;28;20032;-61
2021/12/23 00:59:58;;;;;;;25.55;12.48;;;;;;;-10.48;100.00;91513.03;5071705;28;20036;-61
2021/12/23 01:02:30;;;;;;;24.92;11.43;;;;;;;-10.58;100.00;91503.75;5071692;28;20113;-61
2021/12/23 01:04:56;;;;;;;13.10;7.60;;;;;;;-10.41;100.00;91511.41;5071725;28;20115;-61
2021/12/23 01:07:22;;;;;;;14.80;8.15;;;;;;;-10.37;100.00;91504.94;5071777;28;20484;-61
2021/12/23 01:09:47;;;;;;;13.38;6.00;;;;;;;-10.38;100.00;91508.47;5071692;28;20024;-61
2021/12/23 01:12:16;;;;;;;21.83;9.57;;;;;;;-10.44;100.00;91499.66;5070239;28;20071;-61
2021/12/23 01:14:53;;;;;;;29.65;11.77;;;;;;;-10.54;100.00;91498.28;5071574;28;20027;-61
2021/12/23 01:19:51;;;;;;;34.03;13.32;;;;;;;-10.67;100.00;91489.38;5070950;28;20445;-61
2021/12/23 01:22:17;;;;;;;21.75;7.28;;;;;;;-10.55;100.00;91502.63;5071340;28;20213;-61
2021/12/23 01:24:42;;;;;;;15.75;6.43;;;;;;;-10.46;100.00;91495.66;5071388;28;20463;-61
2021/12/23 01:27:08;;;;;;;13.77;5.57;;;;;;;-10.41;100.00;91488.25;5071437;28;20104;-61
2021/12/23 01:29:34;;;;;;;11.98;5.80;;;;;;;-10.36;100.00;91491.09;5071340;28;20025;-61
2021/12/23 01:32:04;;;;;;;9.30;4.72;;;;;;;-10.36;100.00;91491.09;5071243;28;20024;-61
2021/12/23 01:34:33;;;;;;;8.93;4.32;;;;;;;-10.32;100.00;91489.78;5071223;28;20040;-61
2021/12/23 01:37:03;;;;;;;9.90;3.95;;;;;;;-10.29;100.00;91479.94;5071222;28;20406;-61
2021/12/23 01:39:28;;;;;;;8.63;4.45;;;;;;;-10.35;99.36;91480.66;5071114;28;20082;-61
2021/12/23 01:41:54;;;;;;;11.00;4.00;;;;;;;-10.31;98.68;91488.81;5071107;28;20117;-61
2021/12/23 01:44:19;;;;;;;17.00;4.95;;;;;;;-10.33;98.48;91483.84;5071183;28;20029;-61
2021/12/23 01:46:45;;;;;;;14.65;6.03;;;;;;;-10.42;99.07;91486.63;5071366;28;20055;-61
2021/12/23 01:49:10;;;;;;;13.10;5.95;;;;;;;-10.50;99.38;91484.13;5071150;28;20468;-61
2021/12/23 01:51:37;;;;;;;15.98;6.97;;;;;;;-10.58;100.00;91477.25;5071238;28;20025;-61
2021/12/23 01:54:03;;;;;;;22.73;7.80;;;;;;;-10.68;100.00;91477.50;5071068;28;20085;-61
2021/12/23 01:56:29;;;;;;;23.52;6.88;;;;;;;-10.58;100.00;91483.19;5071130;28;20039;-61
2021/12/23 01:58:55;;;;;;;13.38;6.13;;;;;;;-10.58;100.00;91472.09;5070890;28;20646;-61
2021/12/23 02:01:20;;;;;;;12.13;5.80;;;;;;;-10.52;100.00;91468.88;5070923;28;20027;-61
2021/12/23 02:03:46;;;;;;;13.48;5.60;;;;;;;-10.41;100.00;91467.69;5070938;28;20493;-61
2021/12/23 02:06:12;;;;;;;12.77;5.72;;;;;;;-10.50;100.00;91459.22;5070937;28;20521;-61
2021/12/23 02:08:38;;;;;;;9.40;4.90;;;;;;;-10.55;100.00;91465.84;5070933;28;20024;-61
2021/12/23 02:11:06;;;;;;;10.13;4.55;;;;;;;-10.53;100.00;91466.47;5070757;28;20071;-61
2021/12/23 02:13:32;;;;;;;14.70;6.57;;;;;;;-10.55;100.00;91461.50;5071095;28;20047;-61
2021/12/23 02:15:58;;;;;;;15.65;7.43;;;;;;;-10.63;100.00;91470.06;5070783;28;20035;-61
2021/12/23 02:18:25;;;;;;;15.15;7.40;;;;;;;-10.58;100.00;91464.41;5070729;28;20053;-61
2021/12/23 02:20:51;;;;;;;10.73;5.40;;;;;;;-10.64;100.00;91453.03;5070661;28;20383;-61
2021/12/23 02:23:16;;;;;;;18.30;7.72;;;;;;;-10.71;100.00;91462.41;5070734;28;20115;-61
2021/12/23 02:25:42;;;;;;;9.48;5.53;;;;;;;-10.63;100.00;91466.69;5070721;28;20094;-61
2021/12/23 02:28:08;;;;;;;7.85;4.53;;;;;;;-10.57;100.00;91471.16;5070761;28;20067;-61
2021/12/23 02:30:37;;;;;;;11.85;6.15;;;;;;;-10.46;100.00;91469.94;5072182;28;20470;-61
2021/12/23 02:33:03;;;;;;;12.05;6.00;;;;;;;-10.43;100.00;91470.41;5075037;28;20040;-61
2021/12/23 02:35:29;;;;;;;15.73;7.72;;;;;;;-10.46;100.00;91464.81;5074668;28;20231;-61
2021/12/23 02:37:55;;;;;;;14.68;7.15;;;;;;;-10.42;100.00;91460.91;5074594;28;20550;-61
2021/12/23 02:40:31;;;;;;;10.48;5.53;;;;;;;-10.42;100.00;91461.72;5074397;28;20078;-61
2021/12/23 02:43:06;;;;;;;12.52;6.45;;;;;;;-10.38;100.00;91463.00;5074410;28;20036;-61
2021/12/23 02:45:32;;;;;;;13.82;6.40;;;;;;;-10.39;100.00;91465.75;5074500;28;20056;-61
2021/12/23 02:47:57;;;;;;;9.68;4.32;;;;;;;-10.62;100.00;91460.56;5074679;28;20501;-61
2021/12/23 02:50:23;;;;;;;7.70;3.78;;;;;;;-10.54;100.00;91462.31;5074284;28;20115;-61
2021/12/23 02:52:48;;;;;;;5.57;3.03;;;;;;;-10.62;100.00;91466.50;5074377;28;20109;-61
2021/12/23 02:55:18;;;;;;;8.98;3.83;;;;;;;-10.66;100.00;91461.88;5074209;28;20112;-61
2021/12/23 02:57:44;;;;;;;2.78;2.00;;;;;;;-10.77;100.00;91467.41;5228148;23;20051;-63
2021/12/23 03:00:10;;;;;;;7.10;3.90;;;;;;;-10.80;100.00;91463.41;5094686;28;20028;-62
2021/12/23 03:02:41;;;;;;;9.48;4.68;;;;;;;-10.86;100.00;91464.09;5094681;28;20043;-62
2021/12/23 03:05:07;;;;;;;8.48;4.85;;;;;;;-10.85;100.00;91455.41;5094638;28;20064;-62
2021/12/23 03:07:34;;;;;;;10.05;5.13;;;;;;;-10.78;100.00;91458.91;5094556;28;20036;-62
2021/12/23 03:10:00;;;;;;;9.63;4.28;;;;;;;-10.63;100.00;91459.78;5094572;28;20080;-62
2021/12/23 03:12:25;;;;;;;14.65;6.70;;;;;;;-10.60;100.00;91449.16;5094756;28;20119;-62
2021/12/23 03:14:51;;;;;;;11.00;6.05;;;;;;;-10.65;100.00;91451.44;5094424;28;20463;-63
2021/12/23 03:17:16;;;;;;;17.65;6.70;;;;;;;-10.59;100.00;91455.09;5094337;28;20030;-63
2021/12/23 03:19:42;;;;;;;15.48;6.80;;;;;;;-10.60;100.00;91463.78;5094295;28;20028;-63
2021/12/23 03:22:07;;;;;;;14.85;7.20;;;;;;;-10.59;100.00;91460.22;5094317;28;20036;-62
2021/12/23 03:24:33;;;;;;;5.32;2.97;;;;;;;-10.71;100.00;91462.41;5094224;28;20433;-62
2021/12/23 03:26:59;;;;;;;9.25;3.80;;;;;;;-10.80;100.00;91462.63;5094114;28;20028;-63
2021/12/23 03:29:24;;;;;;;2.58;1.90;;;;;;;-10.98;100.00;91468.00;5094173;28;20085;-62
2021/12/23 03:31:50;;;;;;;8.52;3.97;;;;;;;-11.05;100.00;91457.59;5094157;28;20028;-62
2021/12/23 03:34:15;;;;;;;8.95;4.85;;;;;;;-10.97;100.00;91467.84;5094115;28;20405;-63
2021/12/23 03:36:41;;;;;;;7.43;4.63;;;;;;;-11.01;100.00;91470.91;5093931;28;20386;-63
2021/12/23 03:39:06;;;;;;;14.43;5.70;;;;;;;-10.91;100.00;91474.06;5093930;28;20084;-63
2021/12/23 03:41:32;;;;;;;13.25;5.25;;;;;;;-10.81;100.00;91468.72;5093494;28;20028;-63
2021/12/23 03:43:57;;;;;;;8.50;4.38;;;;;;;-10.77;100.00;91462.28;5093915;28;20421;-62
2021/12/23 03:46:23;;;;;;;5.90;2.92;;;;;;;-10.61;100.00;91457.81;5093879;28;20390;-62
2021/12/23 03:48:48;;;;;;;8.32;3.97;;;;;;;-10.57;99.61;91463.44;5093672;28;20437;-62
2021/12/23 03:51:14;;;;;;;10.45;4.95;;;;;;;-10.53;97.92;91454.41;5093763;28;20028;-63
2021/12/23 03:53:40;;;;;;;9.98;4.72;;;;;;;-10.52;97.27;91455.22;5094012;28;20049;-62
2021/12/23 03:56:05;;;;;;;8.48;4.15;;;;;;;-10.50;96.93;91450.69;5093681;28;20545;-62
2021/12/23 03:58:31;;;;;;;10.20;4.65;;;;;;;-10.52;96.70;91455.22;5093197;28;20128;-62
2021/12/23 04:00:56;;;;;;;6.72;3.75;;;;;;;-10.57;95.68;91448.03;5093538;28;20027;-62
2021/12/23 04:03:22;;;;;;;8.15;3.72;;;;;;;-10.69;95.57;91445.03;5093783;28;20035;-62
2021/12/23 04:05:47;;;;;;;11.40;5.53;;;;;;;-10.75;95.77;91440.56;5093455;28;20494;-62
2021/12/23 04:08:13;;;;;;;7.53;3.60;;;;;;;-10.84;96.43;91451.09;5093425;28;20390;-62
2021/12/23 04:10:39;;;;;;;12.23;5.05;;;;;;;-10.90;97.04;91450.78;5093344;28;20028;-62
2021/12/23 04:13:04;;;;;;;14.45;6.65;;;;;;;-10.90;97.35;91440.50;5093306;28;20043;-62
2021/12/23 04:15:30;;;;;;;18.65;6.88;;;;;;;-11.00;97.26;91432.22;5080138;28;20028;-68
2021/12/23 04:17:56;;;;;;;15.05;6.50;;;;;;;-10.79;96.15;91454.72;5069110;28;20135;-68
2021/12/23 04:20:29;;;;;;;10.82;5.10;;;;;;;-10.75;94.79;91442.34;5070582;28;20434;-69
2021/12/23 04:22:55;;;;;;;17.85;7.75;;;;;;;-10.72;93.60;91452.31;5070716;28;20021;-68
2021/12/23 04:25:23;;;;;;;12.82;6.28;;;;;;;-10.81;93.73;91451.53;5070108;28;20611;-66
2021/12/23 04:27:51;;;;;;;13.32;5.03;;;;;;;-10.83;93.86;91448.34;5070667;28;20406;-68
2021/12/23 04:30:17;;;;;;;12.60;5.30;;;;;;;-10.87;94.21;91447.09;5070875;28;20024;-68
2021/12/23 04:32:44;;;;;;;13.48;5.78;;;;;;;-10.93;94.95;91452.88;5072466;28;20155;-68
2021/12/23 04:35:09;;;;;;;34.20;12.30;;;;;;;-10.98;95.17;91455.16;5072478;28;20029;-66
2021/12/23 04:37:35;;;;;;;17.75;7.13;;;;;;;-11.01;95.85;91473.50;5072303;28;20028;-65
2021/12/23 04:40:05;;;;;;;14.57;6.40;;;;;;;-10.96;96.37;91464.28;5071382;28;20418;-65
2021/12/23 04:42:31;;;;;;;24.67;9.15;;;;;;;-10.94;95.93;91464.94;5072012;28;20395;-65
2021/12/23 04:44:57;;;;;;;15.45;6.15;;;;;;;-10.91;96.46;91462.00;5072209;28;20036;-65
2021/12/23 04:47:22;;;;;;;12.38;5.75;;;;;;;-10.82;97.21;91459.41;5071980;28;20513;-65
2021/12/23 04:49:48;;;;;;;41.67;16.70;;;;;;;-10.92;97.10;91462.19;5072143;28;20081;-65
2021/12/23 04:52:13;;;;;;;32.55;13.57;;;;;;;-11.12;100.00;91456.66;5071537;28;20025;-65
2021/12/23 04:54:39;;;;;;;17.45;7.95;;;;;;;-11.16;100.00;91470.81;5071025;28;20035;-65
2021/12/23 04:57:05;;;;;;;13.13;6.60;;;;;;;-11.21;100.00;91468.72;5071526;28;20069;-65
2021/12/23 04:59:30;;;;;;;18.23;7.68;;;;;;;-11.28;100.00;91467.00;5071707;28;20111;-65
2021/12/23 05:01:56;;;;;;;18.30;8.05;;;;;;;-11.30;100.00;91469.75;5071765;28;20166;-65
2021/12/23 05:04:21;;;;;;;12.52;6.28;;;;;;;-11.36;100.00;91475.56;5071862;28;20052;-65
2021/12/23 05:06:46;;;;;;;14.75;6.70;;;;;;;-11.37;100.00;91468.00;5071592;28;20036;-66
2021/12/23 05:09:12;;;;;;;12.10;5.65;;;;;;;-11.36;100.00;91464.47;5071391;28;20063;-67
2021/12/23 05:11:37;;;;;;;18.05;9.35;;;;;;;-11.37;100.00;91457.72;5071721;28;20035;-65
2021/12/23 05:14:03;;;;;;;15.90;8.15;;;;;;;-11.23;100.00;91473.25;5071674;28;20482;-66
2021/12/23 05:16:29;;;;;;;15.05;7.93;;;;;;;-11.10;100.00;91477.03;5071585;28;20039;-64
2021/12/23 05:18:54;;;;;;;14.60;7.45;;;;;;;-11.00;100.00;91465.59;5071495;28;20027;-65
2021/12/23 05:21:20;;;;;;;23.15;10.10;;;;;;;-11.04;100.00;91471.25;5071559;28;20477;-64
2021/12/23 05:23:45;;;;;;;17.35;8.57;;;;;;;-11.08;100.00;91468.19;5071938;28;20028;-65
2021/12/23 05:26:11;;;;;;;22.55;11.13;;;;;;;-11.01;100.00;91471.72;5071691;28;20037;-64
2021/12/23 05:28:37;;;;;;;13.02;7.22;;;;;;;-11.05;100.00;91460.16;5071483;28;20023;-65
2021/12/23 05:31:03;;;;;;;22.35;9.90;;;;;;;-11.11;100.00;91470.31;5071415;28;20813;-65
2021/12/23 05:33:29;;;;;;;17.10;8.68;;;;;;;-11.20;100.00;91472.94;5071597;28;20509;-64
2021/12/23 05:35:55;;;;;;;27.75;14.07;;;;;;;-11.14;100.00;91468.09;5071471;28;20090;-64
2021/12/23 05:38:22;;;;;;;22.67;10.60;;;;;;;-11.22;100.00;91469.69;5071352;28;20418;-65
2021/12/23 05:40:48;;;;;;;11.18;6.30;;;;;;;-11.28;100.00;91470.38;5071458;28;20024;-64
2021/12/23 05:43:13;;;;;;;13.32;6.18;;;;;;;-11.33;100.00;91474.41;5071502;28;20560;-64
2021/12/23 05:45:39;;;;;;;11.57;6.22;;;;;;;-11.37;100.00;91473.13;5071417;28;20028;-64
2021/12/23 05:48:04;;;;;;;17.65;6.75;;;;;;;-11.40;100.00;91471.69;5071331;28;20106;-64
2021/12/23 05:50:30;;;;;;;16.60;9.00;;;;;;;-11.27;100.00;91474.53;5071197;28;20059;-65
2021/12/23 05:52:56;;;;;;;48.88;18.20;;;;;;;-11.20;100.00;91467.78;5071358;28;20052;-64
2021/12/23 05:55:21;;;;;;;69.35;22.65;;;;;;;-10.97;100.00;91469.59;5071238;28;20111;-64
2021/12/23 05:57:47;;;;;;;35.90;14.10;;;;;;;-10.88;100.00;91451.44;5070994;28;20048;-64
2021/12/23 06:00:18;;;;;;;29.27;12.18;;;;;;;-10.67;100.00;91457.72;5071149;28;20036;-64
2021/12/23 06:02:44;;;;;;;12.02;5.68;;;;;;;-10.56;98.79;91457.34;5071218;28;20025;-64
2021/12/23 06:05:10;;;;;;;14.88;5.45;;;;;;;-10.44;96.32;91465.44;5071005;28;20032;-64
2021/12/23 06:07:35;;;;;;;13.00;6.57;;;;;;;-10.50;95.55;91472.06;5071033;28;20041;-64
2021/12/23 06:10:03;;;;;;;14.80;8.05;;;;;;;-10.58;95.58;91461.81;5071179;28;20104;-64
2021/12/23 06:12:28;;;;;;;39.50;16.45;;;;;;;-10.67;96.06;91471.38;5071192;28;20032;-64
2021/12/23 06:14:54;;;;;;;30.63;13.27;;;;;;;-10.78;96.70;91481.22;5071066;28;20486;-64
2021/12/23 06:17:19;;;;;;;39.83;18.05;;;;;;;-10.96;98.51;91484.06;5070803;28;20029;-64
2021/12/23 06:19:45;;;;;;;50.25;19.60;;;;;;;-10.97;99.43;91487.59;5070948;28;20025;-63
2021/12/23 06:22:13;;;;;;;36.83;16.33;;;;;;;-10.93;99.64;91493.97;5071061;28;20029;-63
2021/12/23 06:24:39;;;;;;;29.20;13.27;;;;;;;-10.90;100.00;91491.06;5070972;28;20047;-63
2021/12/23 06:27:04;;;;;;;27.65;12.27;;;;;;;-10.97;99.77;91493.53;5070916;28;20028;-63
2021/12/23 06:29:30;;;;;;;28.25;13.50;;;;;;;-10.85;99.42;91490.59;5070866;28;20413;-63
2021/12/23 06:31:56;;;;;;;29.92;14.02;;;;;;;-10.69;98.27;91485.38;5070939;28;20120;-64
2021/12/23 06:34:21;;;;;;;28.63;13.82;;;;;;;-10.64;97.03;91483.88;5070918;28;20024;-64
2021/12/23 06:36:47;;;;;;;29.83;13.30;;;;;;;-10.69;95.80;91483.59;5070813;28;20028;-64
2021/12/23 06:39:13;;;;;;;28.08;12.63;;;;;;;-10.45;95.60;91492.91;5070910;28;20024;-64
2021/12/23 06:41:39;;;;;;;20.55;10.88;;;;;;;-10.38;95.13;91485.34;5070907;28;20047;-64
2021/12/23 06:44:05;;;;;;;21.55;12.63;;;;;;;-10.24;94.80;91488.94;5070787;28;20024;-64
2021/12/23 06:46:31;;;;;;;20.52;14.63;;;;;;;-10.22;93.61;91495.50;5070938;28;20037;-64
2021/12/23 06:48:56;;;;;;;22.83;12.52;;;;;;;-10.12;92.67;91490.09;5070732;28;20104;-64
2021/12/23 06:51:22;;;;;;;29.38;13.68;;;;;;;-10.12;92.32;91482.38;5070769;28;20036;-64
2021/12/23 06:53:47;;;;;;;24.42;8.15;;;;;;;-10.08;91.40;91486.22;5070660;28;20035;-64
2021/12/23 06:56:17;;;;;;;29.70;14.15;;;;;;;-9.91;90.72;91486.88;5070687;28;20037;-64
2021/12/23 06:58:42;;;;;;;30.42;16.38;;;;;;;-9.82;90.29;91484.06;5070522;28;20130;-64
2021/12/23 07:01:08;;;;;;;27.13;14.25;;;;;;;-9.72;89.58;91492.34;5070699;28;20055;-64
2021/12/23 07:03:59;;;;;;;19.42;9.20;;;;;;;-9.45;88.68;91485.81;5070714;28;20170;-64
2021/12/23 07:06:22;;;;;;;27.38;14.10;;;;;;;-9.24;85.87;91481.72;5070115;28;20032;-65
2021/12/23 07:08:48;;;;;;;30.48;13.85;;;;;;;-9.09;85.10;91477.38;5070568;28;20037;-64
2021/12/23 07:11:14;;;;;;;78.63;34.85;;;;;;;-8.95;84.81;91476.56;5070517;28;20417;-64
2021/12/23 07:13:39;;;;;;;16.60;10.63;;;;;;;-8.69;83.14;91464.97;5070294;28;20082;-64
2021/12/23 07:16:05;;;;;;;34.15;16.42;;;;;;;-8.65;82.04;91479.91;5071376;28;20029;-64
2021/12/23 07:18:30;;;;;;;55.00;25.15;;;;;;;-8.67;82.54;91471.56;5072972;28;20025;-64
2021/12/23 07:20:56;;;;;;;55.78;27.52;;;;;;;-7.61;82.51;91469.94;5074151;28;20464;-64
2021/12/23 07:23:22;;;;;;;46.80;24.30;;;;;;;-3.60;70.04;91466.91;5074153;28;20111;-64
2021/12/23 07:25:47;;;;;;;50.95;24.17;;;;;;;-0.40;55.50;91462.44;5074055;28;20103;-64
2021/12/23 07:28:13;;;;;;;27.38;13.70;;;;;;;-1.20;52.14;91459.59;5073812;28;20040;-64
2021/12/23 07:30:38;;;;;;;28.77;15.20;;;;;;;-0.98;51.06;91463.25;5074001;28;20035;-64
2021/12/23 07:33:04;;;;;;;31.08;15.65;;;;;;;-1.54;51.46;91467.13;5073897;28;20115;-64
2021/12/23 07:35:29;;;;;;;16.25;10.77;;;;;;;-1.99;52.08;91460.72;5073886;28;20024;-64
2021/12/23 07:37:59;;;;;;;20.73;13.23;;;;;;;-3.90;55.72;91458.88;5073779;28;20112;-64
2021/12/23 07:40:25;;;;;;;28.48;14.90;;;;;;;-4.65;58.65;91460.41;5073977;28;20028;-64
2021/12/23 07:42:55;;;;;;;59.75;23.02;;;;;;;-4.52;59.26;91458.56;5073627;28;20094;-64
2021/12/23 07:45:25;;;;;;;37.35;16.48;;;;;;;-2.69;57.12;91457.69;5073613;28;20029;-64
2021/12/23 07:47:50;;;;;;;29.60;14.68;;;;;;;0.48;49.72;91455.28;5073580;28;20071;-64
2021/12/23 07:50:16;;;;;;;26.55;15.10;;;;;;;3.32;44.56;91449.44;5073555;28;20063;-64
2021/12/23 07:52:42;;;;;;;35.92;20.23;;;;;;;4.25;41.80;91445.22;5073506;28;20033;-65
2021/12/23 07:55:08;;;;;;;29.98;15.95;;;;;;;5.97;38.77;91457.81;5073421;28;20107;-65
2021/12/23 07:57:33;;;;;;;27.38;18.10;;;;;;;7.97;35.38;91453.81;5073105;28;20502;-65
2021/12/23 08:00:00;;;;;;;34.95;21.88;;;;;;;9.90;32.74;91454.00;5073414;28;20017;-65
2021/12/23 08:02:26;;;;;;;35.13;23.02;;;;;;;9.89;31.82;91460.38;5073318;28;20033;-63
2021/12/23 08:04:52;;;;;;;38.30;21.27;;;;;;;10.64;31.01;91453.25;5073312;28;20031;-63
2021/12/23 08:07:17;;;;;;;42.58;24.88;;;;;;;10.12;31.66;91456.03;5073085;28;20036;-63
2021/12/23 08:09:43;;;;;;;27.92;18.63;;;;;;;9.99;32.16;91466.63;5073203;28;20103;-64
2021/12/23 08:12:09;;;;;;;25.42;15.60;;;;;;;11.19;30.96;91459.31;5073143;28;20026;-65
2021/12/23 08:14:35;;;;;;;15.88;10.10;;;;;;;11.36;30.95;91461.34;5072910;28;20062;-65
2021/12/23 08:17:01;;;;;;;23.52;13.30;;;;;;;10.69;31.32;91463.78;5072954;28;20032;-65
2021/12/23 08:19:27;;;;;;;14.15;9.27;;;;;;;11.18;30.94;91475.59;5073082;28;20031;-65
2021/12/23 08:21:52;;;;;;;11.02;7.10;;;;;;;12.10;29.30;91464.47;5073052;28;20101;-65
2021/12/23 08:24:18;;;;;;;11.93;7.15;;;;;;;11.58;29.95;91464.06;5072818;28;20112;-65
2021/12/23 08:26:50;;;;;;;12.00;8.07;;;;;;;11.41;30.20;91463.94;5072788;28;20029;-65
2021/12/23 08:29:18;;;;;;;7.68;5.80;;;;;;;11.78;29.29;91468.16;5073016;28;20039;-65
2021/12/23 08:31:45;;;;;;;7.22;6.28;;;;;;;11.78;29.32;91460.16;5072854;28;20079;-65
2021/12/23 08:34:11;;;;;;;6.50;4.70;;;;;;;10.26;30.24;91477.38;5072849;28;20028;-65
2021/12/23 08:36:37;;;;;;;6.00;4.30;;;;;;;9.98;30.76;91470.38;5072590;28;20414;-65
2021/12/23 08:39:02;;;;;;;9.52;7.05;;;;;;;10.33;31.07;91469.78;5072690;28;20036;-65
2021/12/23 08:41:28;;;;;;;8.70;6.68;;;;;;;11.97;29.40;91462.66;5072658;28;20394;-65
2021/12/23 08:43:54;;;;;;;5.00;4.50;;;;;;;12.55;28.29;91456.41;5072588;28;20451;-63
2021/12/23 08:46:20;;;;;;;8.40;7.47;;;;;;;11.80;29.37;91451.88;5072456;28;20051;-63
2021/12/23 08:48:46;;;;;;;5.13;4.32;;;;;;;12.01;28.99;91453.00;5072314;28;20036;-65
2021/12/23 08:51:12;;;;;;;241.55;136.20;;;;;;;11.31;30.26;91451.59;5072374;28;20028;-65
2021/12/23 08:53:37;;;;;;;9.02;5.45;;;;;;;11.10;30.85;91439.81;5072351;28;20814;-65
2021/12/23 08:56:05;;;;;;;13.13;6.00;;;;;;;10.26;30.13;91444.66;5072242;28;20549;-65
2021/12/23 08:58:30;;;;;;;16.88;9.30;;;;;;;9.60;31.59;91449.16;5072042;28;20064;-65
2021/12/23 09:00:56;;;;;;;4.28;3.28;;;;;;;8.81;32.40;91438.31;5072235;28;20418;-65
2021/12/23 09:03:21;;;;;;;7.82;4.03;;;;;;;9.54;30.77;91437.03;5072152;28;20406;-65
2021/12/23 09:05:47;;;;;;;10.00;5.25;;;;;;;9.92;31.43;91432.44;5072113;28;20027;-65
2021/12/23 09:08:13;;;;;;;7.80;5.30;;;;;;;10.46;30.69;91428.34;5072023;28;20036;-65
2021/12/23 09:10:38;;;;;;;12.95;5.28;;;;;;;9.58;31.34;91430.06;5071979;28;20028;-65
2021/12/23 09:13:04;;;;;;;19.88;6.30;;;;;;;8.89;32.81;91421.00;5072000;28;20031;-65
2021/12/23 09:15:29;;;;;;;24.52;16.00;;;;;;;8.76;33.59;91417.19;5071885;28;20094;-65
2021/12/23 09:17:55;;;;;;;31.13;19.55;;;;;;;10.14;32.23;91416.66;5071743;28;20082;-65
2021/12/23 09:20:21;;;;;;;10.90;7.57;;;;;;;12.22;28.55;91419.38;5071809;28;20039;-65
2021/12/23 09:22:47;;;;;;;10.57;7.35;;;;;;;10.63;31.09;91414.44;5071727;28;20025;-65
2021/12/23 09:25:22;;;;;;;9.50;6.60;;;;;;;12.92;27.86;91411.63;5071797;28;20035;-65
2021/12/23 09:33:14;;;;;;;15.40;8.90;;;;;;;12.64;28.28;91390.53;5071784;28;20094;-63
2021/12/23 09:35:40;;;;;;;14.90;7.60;;;;;;;12.30;28.46;91396.50;5071525;28;20028;-63
2021/12/23 09:38:06;;;;;;;10.38;7.07;;;;;;;11.63;28.25;91376.00;5071352;28;20025;-63
2021/12/23 09:40:34;;;;;;;156.13;98.55;;;;;;;12.39;29.77;91375.97;5070923;28;20032;-64
2021/12/23 09:43:03;;;;;;;64.63;38.95;;;;;;;9.36;33.24;91380.22;5071303;28;20517;-64
2021/12/23 09:45:29;;;;;;;51.05;29.83;;;;;;;10.32;33.54;91375.13;5071351;28;20569;-65
2021/12/23 09:47:56;;;;;;;15.07;6.82;;;;;;;11.14;30.48;91373.44;5071391;28;20082;-66
2021/12/23 09:50:24;;;;;;;60.00;31.00;;;;;;;11.77;29.15;91364.50;5071291;28;20540;-65
2021/12/23 09:52:52;;;;;;;52.83;31.13;;;;;;;11.14;30.24;91371.56;5071370;28;20025;-65
2021/12/23 09:55:21;;;;;;;58.13;27.60;;;;;;;11.18;30.42;91372.53;5071322;28;20055;-65
2021/12/23 09:57:48;;;;;;;43.47;18.20;;;;;;;11.54;30.08;91361.84;5071058;28;20140;-65
2021/12/23 10:00:15;;;;;;;41.13;21.27;;;;;;;11.37;29.43;91361.72;5071325;28;20066;-65
2021/12/23 10:02:42;;;;;;;101.07;45.80;;;;;;;10.57;30.78;91359.75;5071490;28;20437;-65
2021/12/23 10:05:14;;;;;;;83.97;45.50;;;;;;;11.13;29.68;91359.34;5071269;28;20031;-65
2021/12/23 10:07:43;;;;;;;15.60;8.65;;;;;;;11.99;28.59;91357.31;5071167;28;20094;-65
2021/12/23 10:10:16;;;;;;;20.98;11.82;;;;;;;9.44;31.12;91365.50;5071276;28;20068;-65
2021/12/23 10:31:53;;;;;;;8.57;6.03;;;;;;;11.13;28.81;91334.59;5070983;28;20441;-65
2021/12/23 10:37:24;;;;;;;8.30;4.13;;;;;;;10.03;29.59;91324.88;5071166;28;20111;-65
2021/12/23 10:40:04;;;;;;;44.70;11.45;;;;;;;8.16;32.73;91325.88;5070202;28;20568;-65
2021/12/23 10:42:31;;;;;;;25.70;12.00;;;;;;;9.35;31.86;91312.28;5070979;28;20587;-65
2021/12/23 10:44:59;;;;;;;10.38;5.20;;;;;;;8.61;32.00;91309.41;5071464;28;20413;-65
2021/12/23 10:47:45;;;;;;;8.57;5.45;;;;;;;8.94;31.52;91304.16;5071176;28;20099;-65
2021/12/23 10:50:32;;;;;;;4.53;2.85;;;;;;;7.86;34.80;91306.63;5070726;28;20028;-65
2021/12/23 10:53:07;;;;;;;6.63;3.35;;;;;;;7.54;33.18;91298.50;5074554;28;20081;-65
2021/12/23 10:58:17;;;;;;;10.80;5.40;;;;;;;8.63;34.19;91304.63;5074494;28;20044;-65
2021/12/23 11:00:53;;;;;;;18.92;7.53;;;;;;;8.15;32.97;91301.25;5074429;28;20107;-65
2021/12/23 11:06:08;;;;;;;22.92;8.63;;;;;;;9.49;31.77;91294.50;5074603;28;20029;-65
2021/12/23 11:11:35;;;;;;;6.85;5.47;;;;;;;9.27;33.48;91283.72;5074351;28;20406;-65
2021/12/23 11:28:31;;;;;;;9.63;4.70;;;;;;;7.67;35.49;91264.22;5073864;28;20039;-65
2021/12/23 11:41:04;;;;;;;12.07;6.47;;;;;;;5.94;38.60;91247.13;5074037;28;20043;-65
2021/12/23 11:43:45;;;;;;;70.63;41.65;;;;;;;7.32;37.36;91238.91;5073971;28;20089;-65
2021/12/23 11:46:22;;;;;;;6.50;4.22;;;;;;;7.04;37.10;91250.31;5072313;28;20434;-65
2021/12/23 11:48:52;;;;;;;8.88;4.00;;;;;;;5.47;40.11;91252.84;5073428;28;20083;-65
2021/12/23 11:51:22;;;;;;;9.70;6.43;;;;;;;6.02;38.75;91247.63;5073531;28;20119;-65
2021/12/23 11:53:49;;;;;;;9.48;5.22;;;;;;;6.56;37.76;91250.16;5073480;28;20174;-65
2021/12/23 11:56:19;;;;;;;3.15;2.65;;;;;;;6.27;36.76;91250.88;5073505;28;20028;-65
2021/12/23 11:58:47;;;;;;;7.55;3.78;;;;;;;5.82;38.35;91254.53;5073254;28;20044;-65
2021/12/23 12:01:17;;;;;;;10.02;4.68;;;;;;;6.03;39.15;91250.00;5073688;28;20039;-65
2021/12/23 12:03:59;;;;;;;19.15;11.40;;;;;;;6.27;39.01;91255.38;5073083;28;20626;-65
2021/12/23 12:06:46;;;;;;;9.50;5.03;;;;;;;6.22;37.82;91252.78;5073258;28;20031;-65
2021/12/23 12:09:17;;;;;;;15.65;7.18;;;;;;;6.59;38.84;91239.81;5073118;28;20039;-65
2021/12/23 12:12:09;;;;;;;7.93;3.60;;;;;;;5.45;39.64;91244.41;5073226;28;20414;-65
2021/12/23 12:14:40;;;;;;;8.25;4.68;;;;;;;6.76;37.97;91247.34;5073121;28;20025;-65
2021/12/23 12:17:26;;;;;;;8.60;4.30;;;;;;;6.30;36.49;91242.41;5072986;28;20024;-65
2021/12/23 12:20:34;;;;;;;13.02;3.97;;;;;;;6.72;36.75;91243.69;5073047;28;20067;-65
2021/12/23 12:23:11;;;;;;;12.93;6.10;;;;;;;6.47;36.96;91244.69;5073207;28;20028;-65
2021/12/23 12:25:44;;;;;;;11.00;4.72;;;;;;;6.23;37.08;91254.34;5072823;28;20039;-66